Time;durP1;ratioP1;P1;durP2;ratioP2;P2;SDS_P1;SDS_P2;PMS_P1;PMS_P2;Temp;Humidity;BMP_temperature;BMP_pressure;BME280_temperature;BME280_humidity;BME280_pressure;Samples;Min_cycle;Max_cycle;Signal;HPM_P1;HPM_P2
2022/10/13 00:02:30;;;;;;;5.60;3.50;;;;;;;;;;105047;1289;37766;-33
2022/10/13 00:05:02;;;;;;;5.80;3.40;;;;;;;;;;104795;1294;325721;-33
2022/10/13 00:07:34;;;;;;;6.00;3.60;;;;;;;;;;105062;1289;40006;-34
2022/10/13 00:10:12;;;;;;;4.80;3.00;;;;;;;;;;105168;1282;36154;-33
2022/10/13 00:12:44;;;;;;;5.50;3.50;;;;;;;;;;105148;1289;37743;-33
2022/10/13 00:15:17;;;;;;;5.10;3.40;;;;;;;;;;105128;1289;37642;-33
2022/10/13 00:17:50;;;;;;;5.40;3.60;;;;;;;;;;105078;1282;36291;-33
2022/10/13 00:20:22;;;;;;;5.10;3.30;;;;;;;;;;105099;1295;36106;-34
2022/10/13 00:22:54;;;;;;;5.00;3.20;;;;;;;;;;105103;1294;35086;-34
2022/10/13 00:25:29;;;;;;;5.90;3.70;;;;;;;;;;105052;1292;37710;-34
2022/10/13 00:28:01;;;;;;;5.30;3.50;;;;;;;;;;105066;1289;38473;-34
2022/10/13 00:30:39;;;;;;;6.30;3.90;;;;;;;;;;105118;1289;37943;-34
2022/10/13 00:33:13;;;;;;;5.00;3.20;;;;;;;;;;105144;1288;36145;-33
2022/10/13 00:35:47;;;;;;;4.50;3.10;;;;;;;;;;105138;1288;36894;-34
2022/10/13 00:38:22;;;;;;;5.40;3.20;;;;;;;;;;105027;1294;37710;-34
2022/10/13 00:40:56;;;;;;;5.50;3.50;;;;;;;;;;105029;1291;37804;-33
2022/10/13 00:43:50;;;;;;;5.20;3.40;;;;;;;;;;104981;1295;36248;-33
2022/10/13 00:46:24;;;;;;;6.30;3.40;;;;;;;;;;104898;1295;37756;-34
2022/10/13 00:48:58;;;;;;;5.40;3.60;;;;;;;;;;105050;1295;35282;-34
2022/10/13 00:51:36;;;;;;;5.20;3.50;;;;;;;;;;105059;1294;36473;-33
2022/10/13 00:54:11;;;;;;;5.20;3.20;;;;;;;;;;105084;1288;36631;-34
2022/10/13 00:56:44;;;;;;;5.40;3.60;;;;;;;;;;105056;1282;34932;-34
2022/10/13 00:59:22;;;;;;;6.00;3.70;;;;;;;;;;105024;1289;36522;-34
2022/10/13 01:01:55;;;;;;;5.30;3.50;;;;;;;;;;105068;1288;37905;-33
2022/10/13 01:04:30;;;;;;;;;;;;;;;;;;105053;1295;37726;-34
2022/10/13 01:07:05;;;;;;;5.50;3.30;;;;;;;;;;105053;1288;35756;-33
2022/10/13 01:09:41;;;;;;;5.90;3.60;;;;;;;;;;105103;1289;36007;-34
2022/10/13 01:12:28;;;;;;;6.50;3.60;;;;;;;;;;105096;1292;37800;-33
2022/10/13 01:15:12;;;;;;;5.30;3.70;;;;;;;;;;105053;1294;37786;-33
2022/10/13 01:17:56;;;;;;;5.30;3.70;;;;;;;;;;104994;1294;36994;-33
2022/10/13 01:21:06;;;;;;;5.70;3.50;;;;;;;;;;105019;1288;37957;-34
2022/10/13 01:24:25;;;;;;;5.20;3.50;;;;;;;;;;105069;1289;37388;-33
2022/10/13 01:27:13;;;;;;;5.60;3.70;;;;;;;;;;105041;1294;37700;-34
2022/10/13 01:30:09;;;;;;;5.50;3.60;;;;;;;;;;105092;1293;35811;-34
2022/10/13 01:33:21;;;;;;;6.20;3.90;;;;;;;;;;105078;1296;36178;-34
2022/10/13 01:36:12;;;;;;;5.40;3.60;;;;;;;;;;105074;1288;37759;-33
2022/10/13 01:38:57;;;;;;;5.80;3.70;;;;;;;;;;105057;1288;37522;-34
2022/10/13 01:41:36;;;;;;;5.50;3.90;;;;;;;;;;105096;1288;35991;-34
2022/10/13 01:44:17;;;;;;;6.00;4.00;;;;;;;;;;105097;1288;37748;-34
2022/10/13 01:46:55;;;;;;;5.50;3.70;;;;;;;;;;105062;1289;36112;-33
2022/10/13 01:49:36;;;;;;;5.80;3.90;;;;;;;;;;105090;1288;37215;-34
2022/10/13 01:52:16;;;;;;;5.80;4.00;;;;;;;;;;105116;1295;35394;-33
2022/10/13 01:54:53;;;;;;;5.50;4.00;;;;;;;;;;105150;1289;37659;-33
2022/10/13 01:57:37;;;;;;;6.10;4.40;;;;;;;;;;105125;1289;37667;-33
2022/10/13 02:00:15;;;;;;;6.70;4.00;;;;;;;;;;105023;1294;37732;-33
2022/10/13 02:03:05;;;;;;;6.40;4.00;;;;;;;;;;105141;1288;37955;-33
2022/10/13 02:05:48;;;;;;;5.80;4.10;;;;;;;;;;104997;1296;36361;-33
2022/10/13 02:08:28;;;;;;;5.60;3.90;;;;;;;;;;105070;1294;36170;-34
2022/10/13 02:11:11;;;;;;;5.90;4.00;;;;;;;;;;105170;1288;37879;-34
2022/10/13 02:13:49;;;;;;;5.60;3.90;;;;;;;;;;105155;1296;37659;-34
2022/10/13 02:16:22;;;;;;;6.60;3.90;;;;;;;;;;105114;1289;35368;-34
2022/10/13 02:18:53;;;;;;;;;;;;;;;;;;105142;1290;35342;-33
2022/10/13 02:21:26;;;;;;;6.00;4.30;;;;;;;;;;105122;1295;37368;-33
2022/10/13 02:24:02;;;;;;;6.00;4.20;;;;;;;;;;105122;1291;36742;-33
2022/10/13 02:26:36;;;;;;;6.00;4.20;;;;;;;;;;105092;1294;37931;-33
2022/10/13 02:29:14;;;;;;;6.00;4.20;;;;;;;;;;105093;1294;38328;-33
2022/10/13 02:31:48;;;;;;;6.10;4.00;;;;;;;;;;105106;1289;36499;-33
2022/10/13 02:34:21;;;;;;;5.70;4.10;;;;;;;;;;105154;1285;37967;-34
2022/10/13 02:36:55;;;;;;;5.80;3.90;;;;;;;;;;105131;1290;37933;-34
2022/10/13 02:39:28;;;;;;;6.20;4.60;;;;;;;;;;105053;1286;37774;-34
2022/10/13 02:42:01;;;;;;;5.80;4.30;;;;;;;;;;105077;1288;36017;-33
2022/10/13 02:44:33;;;;;;;6.90;4.40;;;;;;;;;;105082;1291;36060;-33
2022/10/13 02:47:05;;;;;;;6.90;4.60;;;;;;;;;;105056;1294;37749;-34
2022/10/13 02:49:37;;;;;;;6.60;4.70;;;;;;;;;;105029;1294;36529;-33
2022/10/13 02:52:10;;;;;;;6.10;4.30;;;;;;;;;;105038;1291;37520;-33
2022/10/13 02:54:42;;;;;;;6.30;4.60;;;;;;;;;;105046;1281;36087;-33
2022/10/13 02:57:14;;;;;;;6.50;5.00;;;;;;;;;;105048;1291;36128;-34
2022/10/13 02:59:47;;;;;;;7.40;4.70;;;;;;;;;;104993;1295;35198;-34
2022/10/13 03:02:20;;;;;;;6.40;4.70;;;;;;;;;;104951;1298;37857;-33
2022/10/13 03:04:52;;;;;;;6.40;4.40;;;;;;;;;;104950;1287;37861;-34
2022/10/13 03:07:25;;;;;;;6.50;4.80;;;;;;;;;;104951;1290;37706;-33
2022/10/13 03:09:57;;;;;;;6.20;4.40;;;;;;;;;;104940;1291;38859;-34
2022/10/13 03:12:29;;;;;;;6.10;4.80;;;;;;;;;;105002;1285;37577;-34
2022/10/13 03:15:01;;;;;;;6.30;4.70;;;;;;;;;;105057;1298;36505;-34
2022/10/13 03:17:35;;;;;;;6.40;4.40;;;;;;;;;;105045;1294;37893;-34
2022/10/13 03:20:11;;;;;;;6.50;4.10;;;;;;;;;;105025;1292;37741;-33
2022/10/13 03:22:44;;;;;;;6.70;4.50;;;;;;;;;;105057;1294;34840;-33
2022/10/13 03:25:16;;;;;;;6.30;4.50;;;;;;;;;;105042;1294;35311;-33
2022/10/13 03:27:48;;;;;;;6.80;4.80;;;;;;;;;;105054;1290;37740;-33
2022/10/13 03:30:21;;;;;;;6.40;4.70;;;;;;;;;;104964;1291;37997;-33
2022/10/13 03:32:53;;;;;;;6.80;5.10;;;;;;;;;;104999;1296;37744;-33
2022/10/13 03:35:26;;;;;;;6.50;4.60;;;;;;;;;;104993;1291;36202;-33
2022/10/13 03:37:59;;;;;;;;;;;;;;;;;;104999;1296;36008;-33
2022/10/13 03:40:32;;;;;;;5.90;4.70;;;;;;;;;;104908;1297;34967;-34
2022/10/13 03:43:05;;;;;;;7.20;4.80;;;;;;;;;;105045;1290;38989;-34
2022/10/13 03:45:37;;;;;;;6.10;4.70;;;;;;;;;;105045;1274;37735;-34
2022/10/13 03:48:13;;;;;;;5.90;4.40;;;;;;;;;;105071;1294;35963;-34
2022/10/13 03:50:45;;;;;;;6.40;4.90;;;;;;;;;;105068;1289;37685;-34
2022/10/13 03:53:17;;;;;;;6.90;4.70;;;;;;;;;;105105;1292;36495;-33
2022/10/13 03:55:55;;;;;;;7.10;4.80;;;;;;;;;;105126;1290;34202;-34
2022/10/13 03:58:28;;;;;;;6.70;4.60;;;;;;;;;;105123;1290;36240;-34
2022/10/13 04:01:05;;;;;;;6.90;4.80;;;;;;;;;;105077;1294;36176;-34
2022/10/13 04:03:38;;;;;;;5.50;4.40;;;;;;;;;;105134;1290;36134;-34
2022/10/13 04:06:11;;;;;;;5.90;4.40;;;;;;;;;;105099;1289;36634;-33
2022/10/13 04:08:41;;;;;;;;;;;;;;;;;;105125;1294;37699;-33
2022/10/13 04:11:16;;;;;;;5.90;4.50;;;;;;;;;;105042;1293;36074;-34
2022/10/13 04:13:48;;;;;;;6.50;4.40;;;;;;;;;;105071;1293;37738;-33
2022/10/13 04:16:24;;;;;;;6.70;4.70;;;;;;;;;;105118;1292;35073;-33
2022/10/13 04:18:59;;;;;;;6.20;4.50;;;;;;;;;;105135;1285;35734;-34
2022/10/13 04:21:34;;;;;;;7.00;4.70;;;;;;;;;;105053;1293;36695;-34
2022/10/13 04:24:10;;;;;;;6.70;4.80;;;;;;;;;;105104;1295;36276;-33
2022/10/13 04:26:42;;;;;;;7.70;4.40;;;;;;;;;;105112;1295;35997;-34
2022/10/13 04:29:15;;;;;;;6.70;4.90;;;;;;;;;;105096;1294;38321;-33
2022/10/13 04:31:47;;;;;;;6.50;4.90;;;;;;;;;;105087;1295;34856;-33
2022/10/13 04:34:21;;;;;;;7.20;4.60;;;;;;;;;;105167;1279;37884;-34
2022/10/13 04:36:54;;;;;;;7.00;4.90;;;;;;;;;;105157;1295;36278;-34
2022/10/13 04:39:27;;;;;;;6.70;5.00;;;;;;;;;;105167;1293;36196;-34
2022/10/13 04:42:01;;;;;;;7.30;4.90;;;;;;;;;;105083;1292;37361;-34
2022/10/13 04:44:33;;;;;;;6.30;4.90;;;;;;;;;;105045;1297;37870;-34
2022/10/13 04:47:06;;;;;;;7.20;4.80;;;;;;;;;;105046;1294;37955;-34
2022/10/13 04:49:39;;;;;;;7.00;5.20;;;;;;;;;;105046;1291;36211;-34
2022/10/13 04:52:11;;;;;;;7.40;5.00;;;;;;;;;;105036;1282;37897;-34
2022/10/13 04:54:44;;;;;;;7.00;5.00;;;;;;;;;;104978;1294;37486;-34
2022/10/13 04:57:16;;;;;;;7.70;5.40;;;;;;;;;;105104;1292;35113;-34
2022/10/13 04:59:49;;;;;;;6.90;5.30;;;;;;;;;;105053;1291;37764;-35
2022/10/13 05:02:22;;;;;;;6.90;5.10;;;;;;;;;;105035;1294;37968;-35
2022/10/13 05:04:53;;;;;;;;;;;;;;;;;;105085;1294;37654;-34
2022/10/13 05:07:25;;;;;;;6.90;5.00;;;;;;;;;;105059;1291;35726;-34
2022/10/13 05:10:00;;;;;;;7.30;5.40;;;;;;;;;;105073;1289;35182;-33
2022/10/13 05:12:32;;;;;;;7.80;5.20;;;;;;;;;;105045;1282;37797;-34
2022/10/13 05:15:06;;;;;;;6.70;5.10;;;;;;;;;;105097;1294;37761;-34
2022/10/13 05:17:38;;;;;;;7.40;5.00;;;;;;;;;;105033;1290;37849;-34
2022/10/13 05:20:13;;;;;;;7.10;5.50;;;;;;;;;;105114;1294;36158;-34
2022/10/13 05:22:45;;;;;;;7.00;5.10;;;;;;;;;;105045;1294;36163;-34
2022/10/13 05:25:18;;;;;;;7.70;5.40;;;;;;;;;;105042;1292;37239;-34
2022/10/13 05:27:50;;;;;;;7.10;5.10;;;;;;;;;;105051;1287;37851;-35
2022/10/13 05:30:23;;;;;;;7.50;5.10;;;;;;;;;;105054;1296;36062;-36
2022/10/13 05:32:55;;;;;;;7.10;5.30;;;;;;;;;;105007;1290;37817;-36
2022/10/13 05:35:27;;;;;;;7.30;5.80;;;;;;;;;;105010;1296;37428;-36
2022/10/13 05:38:00;;;;;;;7.70;5.00;;;;;;;;;;105051;1295;35119;-34
2022/10/13 05:40:32;;;;;;;6.90;5.20;;;;;;;;;;105167;1290;36557;-34
2022/10/13 05:43:05;;;;;;;7.30;5.80;;;;;;;;;;105078;1293;38229;-38
2022/10/13 05:45:37;;;;;;;6.90;5.20;;;;;;;;;;105105;1283;37389;-38
2022/10/13 05:48:10;;;;;;;7.20;5.00;;;;;;;;;;105096;1290;36138;-38
2022/10/13 05:50:42;;;;;;;7.20;5.60;;;;;;;;;;105132;1289;36826;-38
2022/10/13 05:53:14;;;;;;;6.20;5.00;;;;;;;;;;105090;1294;35272;-38
2022/10/13 05:55:47;;;;;;;7.00;5.20;;;;;;;;;;105169;1294;37970;-36
2022/10/13 05:58:18;;;;;;;;;;;;;;;;;;105164;1285;36238;-36
2022/10/13 06:00:53;;;;;;;7.50;5.40;;;;;;;;;;105099;1294;35691;-36
2022/10/13 06:03:27;;;;;;;8.40;5.90;;;;;;;;;;105088;1295;36135;-35
2022/10/13 06:06:03;;;;;;;6.90;5.60;;;;;;;;;;105115;1282;38218;-35
2022/10/13 06:08:39;;;;;;;7.70;5.50;;;;;;;;;;105134;1282;36682;-35
2022/10/13 06:11:11;;;;;;;7.90;5.10;;;;;;;;;;105131;1288;36303;-35
2022/10/13 06:13:43;;;;;;;7.00;5.30;;;;;;;;;;105078;1288;36145;-36
2022/10/13 06:16:15;;;;;;;6.80;5.40;;;;;;;;;;105132;1289;36181;-35
2022/10/13 06:18:48;;;;;;;6.60;5.40;;;;;;;;;;105066;1291;37944;-35
2022/10/13 06:21:20;;;;;;;6.50;4.90;;;;;;;;;;105080;1288;37672;-35
2022/10/13 06:23:52;;;;;;;7.60;5.00;;;;;;;;;;105011;1290;38090;-35
2022/10/13 06:26:24;;;;;;;7.40;5.10;;;;;;;;;;105104;1289;36342;-35
2022/10/13 06:28:57;;;;;;;7.00;5.10;;;;;;;;;;105058;1292;34954;-36
2022/10/13 06:31:31;;;;;;;7.10;5.50;;;;;;;;;;105118;1288;37723;-35
2022/10/13 06:34:07;;;;;;;7.30;5.60;;;;;;;;;;105028;1294;37955;-35
2022/10/13 06:36:40;;;;;;;6.20;4.90;;;;;;;;;;105190;1292;36211;-35
2022/10/13 06:39:13;;;;;;;9.40;5.60;;;;;;;;;;105175;1288;35968;-35
2022/10/13 06:41:44;;;;;;;;;;;;;;;;;;105064;1282;35262;-35
2022/10/13 06:44:16;;;;;;;9.20;5.40;;;;;;;;;;104987;1290;35156;-36
2022/10/13 06:46:49;;;;;;;8.00;5.60;;;;;;;;;;105061;1291;37838;-36
2022/10/13 06:49:21;;;;;;;8.50;6.20;;;;;;;;;;105069;1290;36349;-34
2022/10/13 06:51:54;;;;;;;8.60;5.70;;;;;;;;;;105059;1289;35998;-35
2022/10/13 06:54:26;;;;;;;9.90;6.00;;;;;;;;;;104979;1288;36500;-36
2022/10/13 06:56:58;;;;;;;9.50;5.40;;;;;;;;;;105089;1289;37184;-35
2022/10/13 06:59:31;;;;;;;10.40;6.00;;;;;;;;;;105113;1295;37793;-35
2022/10/13 07:02:03;;;;;;;8.10;5.50;;;;;;;;;;105116;1290;37668;-34
2022/10/13 07:04:35;;;;;;;8.80;5.50;;;;;;;;;;105012;1294;37719;-36
2022/10/13 07:07:07;;;;;;;9.40;6.60;;;;;;;;;;105066;1291;37465;-34
2022/10/13 07:09:41;;;;;;;9.20;6.50;;;;;;;;;;105072;1294;34967;-36
2022/10/13 07:12:15;;;;;;;9.60;6.30;;;;;;;;;;105075;1291;37859;-36
2022/10/13 07:14:49;;;;;;;8.10;6.20;;;;;;;;;;105012;1289;37892;-36
2022/10/13 07:17:21;;;;;;;9.70;6.80;;;;;;;;;;105130;1283;36205;-36
2022/10/13 07:19:54;;;;;;;9.20;6.20;;;;;;;;;;105107;1288;35169;-35
2022/10/13 07:22:26;;;;;;;8.80;6.50;;;;;;;;;;105103;1289;38001;-36
2022/10/13 07:24:58;;;;;;;9.30;6.30;;;;;;;;;;105059;1288;37688;-35
2022/10/13 07:27:31;;;;;;;10.00;6.70;;;;;;;;;;105052;1294;37652;-32
2022/10/13 07:30:04;;;;;;;9.70;6.70;;;;;;;;;;105056;1281;36149;-33
2022/10/13 07:32:41;;;;;;;9.60;7.10;;;;;;;;;;105066;1292;36202;-33
2022/10/13 07:35:14;;;;;;;11.10;7.00;;;;;;;;;;105038;1288;35285;-32
2022/10/13 07:37:46;;;;;;;11.10;6.80;;;;;;;;;;105033;1287;37983;-32
2022/10/13 07:40:19;;;;;;;10.80;6.50;;;;;;;;;;105020;1290;36302;-34
2022/10/13 07:42:49;;;;;;;;;;;;;;;;;;105160;1291;36233;-32
2022/10/13 07:45:23;;;;;;;10.40;6.70;;;;;;;;;;105148;1289;37317;-35
2022/10/13 07:47:55;;;;;;;10.50;6.10;;;;;;;;;;105140;1277;37229;-35
2022/10/13 07:50:27;;;;;;;9.90;6.40;;;;;;;;;;105146;1293;38016;-35
2022/10/13 07:53:00;;;;;;;9.70;6.50;;;;;;;;;;105171;1295;37597;-37
2022/10/13 07:55:32;;;;;;;9.80;6.40;;;;;;;;;;105099;1288;36075;-36
2022/10/13 07:58:08;;;;;;;8.50;5.80;;;;;;;;;;105133;1295;37316;-35
2022/10/13 08:00:40;;;;;;;9.60;6.00;;;;;;;;;;105137;1288;36159;-34
2022/10/13 08:03:12;;;;;;;9.60;6.20;;;;;;;;;;105083;1294;37743;-34
2022/10/13 08:05:44;;;;;;;8.50;6.00;;;;;;;;;;104868;1289;36072;-32
2022/10/13 08:08:16;;;;;;;8.80;5.90;;;;;;;;;;105057;1291;37882;-34
2022/10/13 08:10:48;;;;;;;9.70;6.50;;;;;;;;;;105037;1282;36023;-34
2022/10/13 08:13:20;;;;;;;8.90;6.10;;;;;;;;;;105088;1282;34837;-35
2022/10/13 08:15:52;;;;;;;9.40;5.90;;;;;;;;;;105024;1295;37879;-34
2022/10/13 08:18:25;;;;;;;8.70;6.20;;;;;;;;;;105009;1297;37750;-33
2022/10/13 08:20:59;;;;;;;7.80;5.70;;;;;;;;;;105030;1287;37851;-35
2022/10/13 08:23:31;;;;;;;8.80;6.30;;;;;;;;;;105022;1287;35330;-36
2022/10/13 08:26:04;;;;;;;8.10;5.80;;;;;;;;;;104986;1280;36755;-36
2022/10/13 08:28:36;;;;;;;7.90;5.40;;;;;;;;;;105042;1292;37759;-37
2022/10/13 08:31:08;;;;;;;11.90;6.00;;;;;;;;;;105050;1289;37912;-35
2022/10/13 08:33:41;;;;;;;8.30;5.80;;;;;;;;;;105046;1291;36140;-34
2022/10/13 08:36:13;;;;;;;7.90;5.90;;;;;;;;;;105004;1291;37772;-35
2022/10/13 08:38:45;;;;;;;9.50;6.40;;;;;;;;;;105041;1291;37183;-35
2022/10/13 08:41:23;;;;;;;8.30;5.90;;;;;;;;;;105062;1286;35037;-34
2022/10/13 08:44:01;;;;;;;7.20;5.20;;;;;;;;;;105051;1294;38005;-35
2022/10/13 08:46:49;;;;;;;8.40;6.00;;;;;;;;;;104888;1289;37438;-34
2022/10/13 08:49:21;;;;;;;8.40;5.50;;;;;;;;;;105071;1283;37894;-34
2022/10/13 08:51:54;;;;;;;7.90;5.60;;;;;;;;;;105122;1291;38021;-34
2022/10/13 08:54:27;;;;;;;7.10;5.40;;;;;;;;;;105078;1289;38117;-34
2022/10/13 08:57:00;;;;;;;8.80;5.40;;;;;;;;;;105028;1294;39052;-36
2022/10/13 08:59:32;;;;;;;6.90;5.20;;;;;;;;;;105084;1282;36593;-33
2022/10/13 09:02:13;;;;;;;8.10;5.30;;;;;;;;;;105085;1289;37913;-35
2022/10/13 09:04:48;;;;;;;8.70;5.30;;;;;;;;;;105092;1294;37738;-33
2022/10/13 09:07:24;;;;;;;8.00;5.20;;;;;;;;;;105040;1291;38080;-36
2022/10/13 09:09:57;;;;;;;7.20;5.10;;;;;;;;;;105031;1288;36198;-33
2022/10/13 09:12:32;;;;;;;8.20;5.80;;;;;;;;;;105054;1294;35544;-35
2022/10/13 09:15:12;;;;;;;7.80;5.00;;;;;;;;;;105045;1292;35346;-34
2022/10/13 09:17:45;;;;;;;8.10;5.30;;;;;;;;;;105009;1295;38022;-34
2022/10/13 09:20:26;;;;;;;7.80;5.00;;;;;;;;;;105018;1290;37323;-36
2022/10/13 09:23:09;;;;;;;7.20;4.80;;;;;;;;;;105108;1291;35955;-37
2022/10/13 09:25:47;;;;;;;8.00;4.90;;;;;;;;;;105283;1287;23037;-34
2022/10/13 09:28:25;;;;;;;9.20;5.20;;;;;;;;;;105280;1288;22496;-34
2022/10/13 09:31:17;;;;;;;6.80;4.90;;;;;;;;;;105370;1288;22493;-35
2022/10/13 09:34:03;;;;;;;7.50;5.10;;;;;;;;;;105379;1282;22570;-35
2022/10/13 09:36:35;;;;;;;8.10;5.20;;;;;;;;;;105411;1282;22468;-35
2022/10/13 09:39:15;;;;;;;6.80;5.00;;;;;;;;;;105259;1280;22508;-35
2022/10/13 09:41:48;;;;;;;8.00;5.20;;;;;;;;;;105287;1282;23308;-35
2022/10/13 09:44:32;;;;;;;7.70;5.10;;;;;;;;;;105295;1288;22504;-35
2022/10/13 09:47:14;;;;;;;7.20;4.70;;;;;;;;;;105295;1287;25245;-35
2022/10/13 09:49:47;;;;;;;7.80;4.90;;;;;;;;;;105341;1288;25364;-35
2022/10/13 09:52:24;;;;;;;7.50;5.50;;;;;;;;;;105352;1281;25249;-35
2022/10/13 09:54:59;;;;;;;9.90;5.00;;;;;;;;;;105400;1288;22413;-34
2022/10/13 09:57:42;;;;;;;8.30;5.50;;;;;;;;;;105355;1289;22491;-34
2022/10/13 10:00:23;;;;;;;;;;;;;;;;;;105329;1289;26672;-35
2022/10/13 10:03:00;;;;;;;8.60;5.30;;;;;;;;;;105320;1288;23987;-35
2022/10/13 10:05:49;;;;;;;7.30;4.90;;;;;;;;;;105428;1285;22469;-35
2022/10/13 10:08:28;;;;;;;8.30;4.60;;;;;;;;;;105356;1282;22549;-35
2022/10/13 10:11:05;;;;;;;7.80;4.70;;;;;;;;;;105366;1289;22566;-33
2022/10/13 10:13:37;;;;;;;8.30;5.10;;;;;;;;;;105354;1288;22913;-34
2022/10/13 10:16:19;;;;;;;7.30;4.50;;;;;;;;;;105384;1289;22472;-34
2022/10/13 10:18:56;;;;;;;8.20;5.10;;;;;;;;;;105331;1281;22519;-34
2022/10/13 10:21:37;;;;;;;6.60;4.60;;;;;;;;;;105411;1282;22473;-34
2022/10/13 10:24:33;;;;;;;9.20;4.90;;;;;;;;;;105394;1296;22497;-34
2022/10/13 10:27:14;;;;;;;7.30;4.50;;;;;;;;;;105373;1285;22471;-34
2022/10/13 10:29:53;;;;;;;7.00;4.60;;;;;;;;;;105326;1289;22488;-33
2022/10/13 10:32:36;;;;;;;7.30;4.30;;;;;;;;;;105372;1289;24446;-31
2022/10/13 10:35:19;;;;;;;7.70;4.20;;;;;;;;;;105317;1282;23890;-33
2022/10/13 10:38:22;;;;;;;7.30;4.00;;;;;;;;;;105376;1289;25040;-33
2022/10/13 10:41:07;;;;;;;7.90;4.20;;;;;;;;;;105416;1293;23739;-33
2022/10/13 10:43:50;;;;;;;6.70;3.80;;;;;;;;;;105455;1283;22474;-33
2022/10/13 10:46:25;;;;;;;7.90;4.30;;;;;;;;;;105394;1286;22471;-33
2022/10/13 10:49:04;;;;;;;8.70;4.70;;;;;;;;;;105353;1281;22568;-32
2022/10/13 10:51:39;;;;;;;7.10;4.00;;;;;;;;;;105365;1286;22808;-33
2022/10/13 10:54:30;;;;;;;7.00;4.30;;;;;;;;;;105367;1290;24149;-33
2022/10/13 10:57:15;;;;;;;6.80;3.80;;;;;;;;;;105351;1282;22439;-32
2022/10/13 10:59:58;;;;;;;6.90;4.30;;;;;;;;;;105302;1289;22478;-33
2022/10/13 11:02:50;;;;;;;7.00;4.00;;;;;;;;;;105390;1286;22473;-33
2022/10/13 11:05:23;;;;;;;6.80;3.80;;;;;;;;;;105359;1282;22474;-34
2022/10/13 11:08:02;;;;;;;7.60;4.20;;;;;;;;;;105384;1286;22503;-34
2022/10/13 11:10:34;;;;;;;7.50;3.90;;;;;;;;;;105328;1289;25436;-31
2022/10/13 11:13:24;;;;;;;7.10;3.60;;;;;;;;;;105365;1275;26014;-32
2022/10/13 11:16:00;;;;;;;5.50;3.50;;;;;;;;;;105404;1282;27434;-33
2022/10/13 11:19:05;;;;;;;6.20;3.70;;;;;;;;;;105385;1283;22486;-34
2022/10/13 11:22:24;;;;;;;5.90;3.40;;;;;;;;;;105353;1282;22469;-35
2022/10/13 11:25:08;;;;;;;7.00;3.60;;;;;;;;;;105379;1289;22482;-33
2022/10/13 11:27:46;;;;;;;6.40;3.50;;;;;;;;;;105369;1290;22489;-34
2022/10/13 11:30:51;;;;;;;5.40;3.30;;;;;;;;;;105423;1282;22487;-32
2022/10/13 11:33:58;;;;;;;5.80;3.40;;;;;;;;;;105202;1283;22488;-33
2022/10/13 11:36:50;;;;;;;6.20;3.30;;;;;;;;;;105516;1283;22538;-33
2022/10/13 11:39:59;;;;;;;5.50;3.10;;;;;;;;;;105523;1286;25953;-34
2022/10/13 11:43:03;;;;;;;5.30;3.30;;;;;;;;;;105092;1286;36131;-33
2022/10/13 11:45:59;;;;;;;4.90;3.10;;;;;;;;;;105099;1289;37200;-32
2022/10/13 11:48:54;;;;;;;6.50;3.30;;;;;;;;;;105066;1297;38201;-33
2022/10/13 11:51:41;;;;;;;5.90;3.00;;;;;;;;;;104825;1291;36149;-32
2022/10/13 11:54:27;;;;;;;5.20;3.10;;;;;;;;;;104938;1290;38305;-32
2022/10/13 11:57:04;;;;;;;6.20;3.40;;;;;;;;;;104977;1292;37785;-33
2022/10/13 11:59:38;;;;;;;5.90;3.10;;;;;;;;;;104965;1290;35963;-33
2022/10/13 12:02:17;;;;;;;5.80;3.60;;;;;;;;;;104885;1291;34833;-33
2022/10/13 12:05:04;;;;;;;5.90;3.30;;;;;;;;;;104954;1291;35437;-32
2022/10/13 12:07:40;;;;;;;6.20;3.20;;;;;;;;;;104955;1291;36602;-33
2022/10/13 12:10:23;;;;;;;4.30;2.80;;;;;;;;;;104942;1295;35947;-33
2022/10/13 12:12:57;;;;;;;5.30;3.20;;;;;;;;;;104940;1290;37898;-31
2022/10/13 12:15:37;;;;;;;5.20;3.00;;;;;;;;;;104939;1292;37855;-31
2022/10/13 12:18:26;;;;;;;4.60;2.90;;;;;;;;;;104984;1290;35942;-31
2022/10/13 12:21:01;;;;;;;5.10;2.60;;;;;;;;;;104937;1282;38405;-31
2022/10/13 12:23:34;;;;;;;5.80;2.90;;;;;;;;;;104924;1291;39024;-31
2022/10/13 12:26:07;;;;;;;5.40;2.70;;;;;;;;;;104476;1297;154459;-33
2022/10/13 12:28:52;;;;;;;5.40;3.10;;;;;;;;;;104627;1297;35006;-32
2022/10/13 12:31:28;;;;;;;5.90;2.80;;;;;;;;;;104598;1297;35436;-33
2022/10/13 12:34:02;;;;;;;4.90;2.60;;;;;;;;;;104702;1295;37823;-33
2022/10/13 12:36:36;;;;;;;5.00;3.10;;;;;;;;;;104671;1288;37879;-35
2022/10/13 12:39:13;;;;;;;4.60;2.60;;;;;;;;;;104661;1294;36052;-33
2022/10/13 12:41:48;;;;;;;4.60;2.70;;;;;;;;;;104634;1295;34888;-34
2022/10/13 12:44:27;;;;;;;4.90;2.70;;;;;;;;;;104680;1302;37648;-33
2022/10/13 12:47:03;;;;;;;5.60;2.90;;;;;;;;;;104670;1287;37989;-34
2022/10/13 12:49:38;;;;;;;5.50;2.70;;;;;;;;;;104695;1301;35951;-32
2022/10/13 12:52:16;;;;;;;4.90;2.50;;;;;;;;;;104711;1295;35375;-34
2022/10/13 12:54:54;;;;;;;4.50;2.50;;;;;;;;;;104658;1296;37885;-33
2022/10/13 12:57:41;;;;;;;6.00;2.60;;;;;;;;;;104657;1291;36287;-33
2022/10/13 13:00:26;;;;;;;4.60;2.50;;;;;;;;;;104672;1294;38042;-33
2022/10/13 13:03:01;;;;;;;5.40;2.40;;;;;;;;;;104681;1285;37820;-33
2022/10/13 13:05:39;;;;;;;4.20;2.30;;;;;;;;;;104718;1294;37552;-34
2022/10/13 13:08:28;;;;;;;5.30;2.80;;;;;;;;;;104717;1294;37328;-34
2022/10/13 13:11:05;;;;;;;4.90;2.70;;;;;;;;;;104725;1294;35080;-34
2022/10/13 13:13:40;;;;;;;4.80;2.20;;;;;;;;;;104704;1287;38230;-33
2022/10/13 13:16:20;;;;;;;4.50;2.30;;;;;;;;;;104655;1294;38142;-34
2022/10/13 13:18:53;;;;;;;5.10;2.50;;;;;;;;;;104681;1296;36076;-34
2022/10/13 13:21:25;;;;;;;5.50;2.80;;;;;;;;;;104683;1287;37964;-34
2022/10/13 13:23:57;;;;;;;4.90;2.60;;;;;;;;;;104655;1287;37866;-33
2022/10/13 13:26:29;;;;;;;5.20;2.80;;;;;;;;;;104738;1287;37788;-33
2022/10/13 13:29:02;;;;;;;5.60;2.60;;;;;;;;;;104725;1294;37864;-34
2022/10/13 13:31:34;;;;;;;4.90;2.80;;;;;;;;;;104732;1288;36119;-34
2022/10/13 13:34:06;;;;;;;5.30;2.60;;;;;;;;;;104661;1294;37358;-32
2022/10/13 13:36:38;;;;;;;4.90;2.50;;;;;;;;;;104655;1288;35289;-35
2022/10/13 13:39:17;;;;;;;5.70;2.60;;;;;;;;;;104689;1283;37816;-35
2022/10/13 13:41:49;;;;;;;4.70;2.50;;;;;;;;;;104678;1296;36109;-33
2022/10/13 13:44:21;;;;;;;4.30;2.30;;;;;;;;;;104668;1294;35969;-33
2022/10/13 13:46:54;;;;;;;5.10;2.60;;;;;;;;;;104729;1301;37576;-33
2022/10/13 13:49:26;;;;;;;4.60;2.50;;;;;;;;;;104697;1294;37877;-34
2022/10/13 13:51:58;;;;;;;5.80;2.80;;;;;;;;;;104716;1294;36218;-35
2022/10/13 13:54:30;;;;;;;5.70;2.70;;;;;;;;;;104628;1280;36180;-37
2022/10/13 13:57:05;;;;;;;5.50;2.80;;;;;;;;;;104669;1302;36187;-36
2022/10/13 13:59:38;;;;;;;4.90;2.40;;;;;;;;;;104673;1294;37009;-37
2022/10/13 14:02:16;;;;;;;5.20;2.40;;;;;;;;;;104654;1297;38078;-36
2022/10/13 14:04:49;;;;;;;5.30;2.50;;;;;;;;;;104677;1294;36496;-35
2022/10/13 14:07:21;;;;;;;4.80;2.70;;;;;;;;;;104695;1288;37322;-35
2022/10/13 14:09:53;;;;;;;5.10;2.80;;;;;;;;;;104700;1294;36159;-35
2022/10/13 14:12:25;;;;;;;4.90;2.40;;;;;;;;;;104648;1294;36242;-35
2022/10/13 14:14:58;;;;;;;4.80;2.70;;;;;;;;;;104624;1296;37892;-35
2022/10/13 14:17:32;;;;;;;5.50;2.70;;;;;;;;;;104660;1296;38126;-35
2022/10/13 14:20:06;;;;;;;4.90;2.40;;;;;;;;;;104661;1296;37887;-35
2022/10/13 14:22:42;;;;;;;6.20;2.80;;;;;;;;;;104685;1296;34835;-34
2022/10/13 14:25:15;;;;;;;5.80;2.90;;;;;;;;;;104681;1295;36125;-35
2022/10/13 14:27:47;;;;;;;5.80;2.90;;;;;;;;;;104697;1294;35254;-35
2022/10/13 14:30:21;;;;;;;5.10;3.00;;;;;;;;;;104693;1288;38004;-34
2022/10/13 14:32:53;;;;;;;5.40;2.90;;;;;;;;;;104729;1295;36139;-35
2022/10/13 14:35:25;;;;;;;6.40;3.00;;;;;;;;;;104626;1294;33623;-35
2022/10/13 14:37:57;;;;;;;5.50;2.90;;;;;;;;;;104673;1296;37941;-35
2022/10/13 14:40:30;;;;;;;5.50;2.90;;;;;;;;;;104659;1296;37779;-35
2022/10/13 14:43:02;;;;;;;5.60;3.00;;;;;;;;;;104676;1296;37933;-34
2022/10/13 14:45:34;;;;;;;6.40;3.00;;;;;;;;;;104644;1294;37814;-34
2022/10/13 14:48:15;;;;;;;5.20;2.90;;;;;;;;;;104726;1294;36088;-36
2022/10/13 14:50:47;;;;;;;4.80;2.40;;;;;;;;;;104691;1295;36528;-36
2022/10/13 14:53:19;;;;;;;5.60;2.80;;;;;;;;;;104713;1294;36660;-36
2022/10/13 14:55:51;;;;;;;5.60;2.80;;;;;;;;;;104644;1294;37857;-36
2022/10/13 14:58:24;;;;;;;5.30;2.80;;;;;;;;;;104642;1297;37858;-34
2022/10/13 15:00:56;;;;;;;5.40;2.80;;;;;;;;;;104666;1294;35329;-35
2022/10/13 15:03:28;;;;;;;5.60;2.40;;;;;;;;;;104681;1294;36340;-35
2022/10/13 15:06:02;;;;;;;4.50;2.70;;;;;;;;;;104649;1294;37681;-35
2022/10/13 15:08:36;;;;;;;5.40;3.00;;;;;;;;;;104694;1294;37827;-35
2022/10/13 15:11:10;;;;;;;5.40;3.10;;;;;;;;;;104714;1294;37649;-35
2022/10/13 15:13:42;;;;;;;5.40;2.90;;;;;;;;;;104716;1294;37830;-35
2022/10/13 15:16:20;;;;;;;5.60;2.70;;;;;;;;;;104678;1294;36024;-35
2022/10/13 15:18:52;;;;;;;5.60;2.90;;;;;;;;;;104675;1294;37912;-36
2022/10/13 15:21:25;;;;;;;6.30;2.70;;;;;;;;;;104687;1287;37291;-36
2022/10/13 15:24:01;;;;;;;4.60;2.60;;;;;;;;;;104676;1297;36062;-35
2022/10/13 15:26:33;;;;;;;5.30;2.80;;;;;;;;;;104675;1294;36157;-35
2022/10/13 15:29:06;;;;;;;5.00;2.50;;;;;;;;;;104727;1279;35828;-35